sensor_id;sensor_type;location;lat;lon;timestamp;temperature;humidity
22706;DHT22;11520;51.198;4.468;2023-07-31T00:00:11;17.80;99.90
22706;DHT22;11520;51.198;4.468;2023-07-31T00:02:37;17.80;99.90
22706;DHT22;11520;51.198;4.468;2023-07-31T00:05:03;17.90;99.90
22706;DHT22;11520;51.198;4.468;2023-07-31T00:07:29;17.90;99.90
22706;DHT22;11520;51.198;4.468;2023-07-31T00:09:54;17.90;99.90
22706;DHT22;11520;51.198;4.468;2023-07-31T00:12:22;18.00;99.90
22706;DHT22;11520;51.198;4.468;2023-07-31T00:14:47;18.00;99.90
22706;DHT22;11520;51.198;4.468;2023-07-31T00:17:13;18.00;99.90
22706;DHT22;11520;51.198;4.468;2023-07-31T00:19:38;17.80;99.90
22706;DHT22;11520;51.198;4.468;2023-07-31T00:22:04;17.80;99.90
22706;DHT22;11520;51.198;4.468;2023-07-31T00:24:30;17.80;99.90
22706;DHT22;11520;51.198;4.468;2023-07-31T00:26:55;17.80;99.90
22706;DHT22;11520;51.198;4.468;2023-07-31T00:29:21;17.80;99.90
22706;DHT22;11520;51.198;4.468;2023-07-31T00:31:46;17.80;99.90
22706;DHT22;11520;51.198;4.468;2023-07-31T00:34:12;17.70;99.90
22706;DHT22;11520;51.198;4.468;2023-07-31T00:36:39;17.80;99.90
22706;DHT22;11520;51.198;4.468;2023-07-31T00:39:05;17.80;99.90
22706;DHT22;11520;51.198;4.468;2023-07-31T00:41:30;17.70;99.90
22706;DHT22;11520;51.198;4.468;2023-07-31T00:43:56;17.80;99.90
22706;DHT22;11520;51.198;4.468;2023-07-31T00:46:22;17.70;99.90
22706;DHT22;11520;51.198;4.468;2023-07-31T00:48:48;17.70;99.90
22706;DHT22;11520;51.198;4.468;2023-07-31T00:51:14;17.70;99.90
22706;DHT22;11520;51.198;4.468;2023-07-31T00:53:40;17.60;99.90
22706;DHT22;11520;51.198;4.468;2023-07-31T00:56:06;17.60;99.90
22706;DHT22;11520;51.198;4.468;2023-07-31T00:58:34;17.60;99.90
22706;DHT22;11520;51.198;4.468;2023-07-31T01:00:59;17.70;99.90
22706;DHT22;11520;51.198;4.468;2023-07-31T01:03:25;17.70;99.90
22706;DHT22;11520;51.198;4.468;2023-07-31T01:06:07;17.70;99.90
22706;DHT22;11520;51.198;4.468;2023-07-31T01:11:48;17.70;99.90
22706;DHT22;11520;51.198;4.468;2023-07-31T01:14:16;17.70;99.90
22706;DHT22;11520;51.198;4.468;2023-07-31T01:16:42;17.70;99.90
22706;DHT22;11520;51.198;4.468;2023-07-31T01:19:09;17.70;99.90
22706;DHT22;11520;51.198;4.468;2023-07-31T01:27:14;17.70;99.90
22706;DHT22;11520;51.198;4.468;2023-07-31T01:29:48;17.70;99.90
22706;DHT22;11520;51.198;4.468;2023-07-31T01:32:15;17.70;99.90
22706;DHT22;11520;51.198;4.468;2023-07-31T01:34:42;17.80;99.90
22706;DHT22;11520;51.198;4.468;2023-07-31T01:37:08;17.80;99.90
22706;DHT22;11520;51.198;4.468;2023-07-31T01:39:34;17.70;99.90
22706;DHT22;11520;51.198;4.468;2023-07-31T01:42:00;17.70;99.90
22706;DHT22;11520;51.198;4.468;2023-07-31T01:44:25;17.70;99.90
22706;DHT22;11520;51.198;4.468;2023-07-31T01:46:51;17.70;99.90
22706;DHT22;11520;51.198;4.468;2023-07-31T01:49:16;17.70;99.90
22706;DHT22;11520;51.198;4.468;2023-07-31T01:51:42;17.80;99.90
22706;DHT22;11520;51.198;4.468;2023-07-31T01:54:07;17.80;99.90
22706;DHT22;11520;51.198;4.468;2023-07-31T01:56:33;17.80;99.90
22706;DHT22;11520;51.198;4.468;2023-07-31T01:58:59;17.80;99.90
22706;DHT22;11520;51.198;4.468;2023-07-31T02:01:24;17.80;99.90
22706;DHT22;11520;51.198;4.468;2023-07-31T02:03:50;17.70;99.90
22706;DHT22;11520;51.198;4.468;2023-07-31T02:06:15;17.70;99.90
22706;DHT22;11520;51.198;4.468;2023-07-31T02:08:41;17.80;99.90
22706;DHT22;11520;51.198;4.468;2023-07-31T02:11:06;17.80;99.90
22706;DHT22;11520;51.198;4.468;2023-07-31T02:13:32;17.90;99.90
22706;DHT22;11520;51.198;4.468;2023-07-31T02:15:57;17.80;99.90
22706;DHT22;11520;51.198;4.468;2023-07-31T02:18:23;17.90;99.90
22706;DHT22;11520;51.198;4.468;2023-07-31T02:20:50;17.90;99.90
22706;DHT22;11520;51.198;4.468;2023-07-31T02:23:16;17.80;99.90
22706;DHT22;11520;51.198;4.468;2023-07-31T02:25:42;17.80;99.90
22706;DHT22;11520;51.198;4.468;2023-07-31T02:28:15;17.80;99.90
22706;DHT22;11520;51.198;4.468;2023-07-31T02:30:44;17.80;99.90
22706;DHT22;11520;51.198;4.468;2023-07-31T02:33:11;17.80;99.90
22706;DHT22;11520;51.198;4.468;2023-07-31T02:35:36;17.80;99.90
22706;DHT22;11520;51.198;4.468;2023-07-31T02:38:02;17.80;99.90
22706;DHT22;11520;51.198;4.468;2023-07-31T02:40:28;17.80;99.90
22706;DHT22;11520;51.198;4.468;2023-07-31T02:42:53;17.80;99.90
22706;DHT22;11520;51.198;4.468;2023-07-31T02:45:19;17.80;99.90
22706;DHT22;11520;51.198;4.468;2023-07-31T02:47:44;17.80;99.90
22706;DHT22;11520;51.198;4.468;2023-07-31T02:50:10;17.80;99.90
22706;DHT22;11520;51.198;4.468;2023-07-31T02:52:36;17.80;99.90
22706;DHT22;11520;51.198;4.468;2023-07-31T02:55:01;17.80;99.90
22706;DHT22;11520;51.198;4.468;2023-07-31T02:57:27;17.80;99.90
22706;DHT22;11520;51.198;4.468;2023-07-31T02:59:52;17.80;99.90
22706;DHT22;11520;51.198;4.468;2023-07-31T03:02:18;17.90;99.90
22706;DHT22;11520;51.198;4.468;2023-07-31T03:04:44;17.80;99.90
22706;DHT22;11520;51.198;4.468;2023-07-31T03:07:09;17.80;99.90
22706;DHT22;11520;51.198;4.468;2023-07-31T03:09:35;17.80;99.90
22706;DHT22;11520;51.198;4.468;2023-07-31T03:12:01;17.90;99.90
22706;DHT22;11520;51.198;4.468;2023-07-31T03:14:26;17.90;99.90
22706;DHT22;11520;51.198;4.468;2023-07-31T03:16:52;17.90;99.90
22706;DHT22;11520;51.198;4.468;2023-07-31T03:19:19;17.90;99.90
22706;DHT22;11520;51.198;4.468;2023-07-31T03:21:45;17.90;99.90
22706;DHT22;11520;51.198;4.468;2023-07-31T03:24:10;17.90;99.90
22706;DHT22;11520;51.198;4.468;2023-07-31T03:26:38;17.90;99.90
22706;DHT22;11520;51.198;4.468;2023-07-31T03:29:06;17.90;99.90
22706;DHT22;11520;51.198;4.468;2023-07-31T03:31:32;17.90;99.90
22706;DHT22;11520;51.198;4.468;2023-07-31T03:33:58;17.90;99.90
22706;DHT22;11520;51.198;4.468;2023-07-31T03:36:23;18.00;99.90
22706;DHT22;11520;51.198;4.468;2023-07-31T03:38:51;17.90;99.90
22706;DHT22;11520;51.198;4.468;2023-07-31T03:41:16;17.90;99.90
22706;DHT22;11520;51.198;4.468;2023-07-31T03:43:42;17.90;99.90
22706;DHT22;11520;51.198;4.468;2023-07-31T03:46:07;17.90;99.90
22706;DHT22;11520;51.198;4.468;2023-07-31T03:48:33;17.90;99.90
22706;DHT22;11520;51.198;4.468;2023-07-31T03:50:59;17.90;99.90
22706;DHT22;11520;51.198;4.468;2023-07-31T03:53:24;17.90;99.90
22706;DHT22;11520;51.198;4.468;2023-07-31T03:55:50;18.00;99.90
22706;DHT22;11520;51.198;4.468;2023-07-31T03:58:15;17.90;99.90
22706;DHT22;11520;51.198;4.468;2023-07-31T04:00:41;17.90;99.90
22706;DHT22;11520;51.198;4.468;2023-07-31T04:03:06;17.90;99.90
22706;DHT22;11520;51.198;4.468;2023-07-31T04:05:32;17.90;99.90
22706;DHT22;11520;51.198;4.468;2023-07-31T04:07:58;17.90;99.90
22706;DHT22;11520;51.198;4.468;2023-07-31T04:10:24;17.90;99.90
22706;DHT22;11520;51.198;4.468;2023-07-31T04:12:50;17.80;99.90
22706;DHT22;11520;51.198;4.468;2023-07-31T04:15:15;17.70;99.90
22706;DHT22;11520;51.198;4.468;2023-07-31T04:17:41;17.70;99.90
22706;DHT22;11520;51.198;4.468;2023-07-31T04:20:07;17.70;99.90
22706;DHT22;11520;51.198;4.468;2023-07-31T04:22:33;17.60;99.90
22706;DHT22;11520;51.198;4.468;2023-07-31T04:24:58;17.60;99.90
22706;DHT22;11520;51.198;4.468;2023-07-31T04:27:24;17.50;99.90
22706;DHT22;11520;51.198;4.468;2023-07-31T04:29:50;17.50;99.90
22706;DHT22;11520;51.198;4.468;2023-07-31T04:32:16;17.50;99.90
22706;DHT22;11520;51.198;4.468;2023-07-31T04:34:42;17.50;99.90
22706;DHT22;11520;51.198;4.468;2023-07-31T04:37:08;17.50;99.90
22706;DHT22;11520;51.198;4.468;2023-07-31T04:39:34;17.50;99.90
22706;DHT22;11520;51.198;4.468;2023-07-31T04:41:59;17.50;99.90
22706;DHT22;11520;51.198;4.468;2023-07-31T04:44:25;17.50;99.90
22706;DHT22;11520;51.198;4.468;2023-07-31T04:46:50;17.50;99.90
22706;DHT22;11520;51.198;4.468;2023-07-31T04:49:17;17.60;99.90
22706;DHT22;11520;51.198;4.468;2023-07-31T04:51:44;17.60;99.90
22706;DHT22;11520;51.198;4.468;2023-07-31T04:54:10;17.60;99.90
22706;DHT22;11520;51.198;4.468;2023-07-31T04:56:38;17.60;99.90
22706;DHT22;11520;51.198;4.468;2023-07-31T04:59:05;17.50;99.90
22706;DHT22;11520;51.198;4.468;2023-07-31T05:01:30;17.50;99.90
22706;DHT22;11520;51.198;4.468;2023-07-31T05:03:56;17.50;99.90
22706;DHT22;11520;51.198;4.468;2023-07-31T05:06:23;17.60;99.90
22706;DHT22;11520;51.198;4.468;2023-07-31T05:08:48;17.60;99.90
22706;DHT22;11520;51.198;4.468;2023-07-31T05:11:14;17.60;99.90
22706;DHT22;11520;51.198;4.468;2023-07-31T05:13:39;17.60;99.90
22706;DHT22;11520;51.198;4.468;2023-07-31T05:16:05;17.70;99.90
22706;DHT22;11520;51.198;4.468;2023-07-31T05:18:31;17.60;99.90
22706;DHT22;11520;51.198;4.468;2023-07-31T05:20:56;17.60;99.90
22706;DHT22;11520;51.198;4.468;2023-07-31T05:23:22;17.60;99.90
22706;DHT22;11520;51.198;4.468;2023-07-31T05:25:47;17.70;99.90
22706;DHT22;11520;51.198;4.468;2023-07-31T05:28:14;17.70;99.90
22706;DHT22;11520;51.198;4.468;2023-07-31T05:30:39;17.70;99.90
22706;DHT22;11520;51.198;4.468;2023-07-31T05:33:05;17.70;99.90
22706;DHT22;11520;51.198;4.468;2023-07-31T05:35:30;17.70;99.90
22706;DHT22;11520;51.198;4.468;2023-07-31T05:37:56;17.70;99.90
22706;DHT22;11520;51.198;4.468;2023-07-31T05:40:22;17.70;99.90
22706;DHT22;11520;51.198;4.468;2023-07-31T05:42:47;17.80;99.90
22706;DHT22;11520;51.198;4.468;2023-07-31T05:45:13;17.80;99.90
22706;DHT22;11520;51.198;4.468;2023-07-31T05:47:39;17.70;99.90
22706;DHT22;11520;51.198;4.468;2023-07-31T05:50:05;17.70;99.90
22706;DHT22;11520;51.198;4.468;2023-07-31T05:52:32;17.70;99.90
22706;DHT22;11520;51.198;4.468;2023-07-31T05:54:57;17.60;99.90
22706;DHT22;11520;51.198;4.468;2023-07-31T05:57:23;17.60;99.90
22706;DHT22;11520;51.198;4.468;2023-07-31T05:59:49;17.50;99.90
22706;DHT22;11520;51.198;4.468;2023-07-31T06:02:14;17.60;99.90
22706;DHT22;11520;51.198;4.468;2023-07-31T06:04:40;17.60;99.90
22706;DHT22;11520;51.198;4.468;2023-07-31T06:07:06;17.60;99.90
22706;DHT22;11520;51.198;4.468;2023-07-31T06:09:31;17.60;99.90
22706;DHT22;11520;51.198;4.468;2023-07-31T06:11:57;17.60;99.90
22706;DHT22;11520;51.198;4.468;2023-07-31T06:14:22;17.60;99.90
22706;DHT22;11520;51.198;4.468;2023-07-31T06:16:48;17.60;99.90
22706;DHT22;11520;51.198;4.468;2023-07-31T06:19:14;17.70;99.90
22706;DHT22;11520;51.198;4.468;2023-07-31T06:21:39;17.70;99.90
22706;DHT22;11520;51.198;4.468;2023-07-31T06:24:07;17.70;99.90
22706;DHT22;11520;51.198;4.468;2023-07-31T06:26:33;17.80;99.90
22706;DHT22;11520;51.198;4.468;2023-07-31T06:28:58;17.90;99.90
22706;DHT22;11520;51.198;4.468;2023-07-31T06:31:24;18.00;99.90
22706;DHT22;11520;51.198;4.468;2023-07-31T06:33:51;18.00;99.90
22706;DHT22;11520;51.198;4.468;2023-07-31T06:36:16;18.00;99.90
22706;DHT22;11520;51.198;4.468;2023-07-31T06:38:42;18.10;99.90
22706;DHT22;11520;51.198;4.468;2023-07-31T06:41:08;18.10;99.90
22706;DHT22;11520;51.198;4.468;2023-07-31T06:43:33;18.20;99.90
22706;DHT22;11520;51.198;4.468;2023-07-31T06:46:07;18.20;99.90
22706;DHT22;11520;51.198;4.468;2023-07-31T06:48:33;18.30;99.90
22706;DHT22;11520;51.198;4.468;2023-07-31T06:51:00;18.40;99.90
22706;DHT22;11520;51.198;4.468;2023-07-31T06:53:26;18.40;99.90
22706;DHT22;11520;51.198;4.468;2023-07-31T06:55:51;18.30;99.90
22706;DHT22;11520;51.198;4.468;2023-07-31T06:58:17;18.40;99.90
22706;DHT22;11520;51.198;4.468;2023-07-31T07:00:43;18.30;99.90
22706;DHT22;11520;51.198;4.468;2023-07-31T07:03:09;18.30;99.90
22706;DHT22;11520;51.198;4.468;2023-07-31T07:05:35;18.50;99.90
22706;DHT22;11520;51.198;4.468;2023-07-31T07:08:01;18.40;99.90
22706;DHT22;11520;51.198;4.468;2023-07-31T07:10:26;18.50;99.90
22706;DHT22;11520;51.198;4.468;2023-07-31T07:12:53;18.60;99.90
22706;DHT22;11520;51.198;4.468;2023-07-31T07:15:18;18.60;99.90
22706;DHT22;11520;51.198;4.468;2023-07-31T07:17:44;18.70;99.90
22706;DHT22;11520;51.198;4.468;2023-07-31T07:20:10;18.60;99.90
22706;DHT22;11520;51.198;4.468;2023-07-31T07:22:35;18.60;99.90
22706;DHT22;11520;51.198;4.468;2023-07-31T07:25:01;18.60;99.90
22706;DHT22;11520;51.198;4.468;2023-07-31T07:27:27;18.60;99.90
22706;DHT22;11520;51.198;4.468;2023-07-31T07:29:53;18.50;99.90
22706;DHT22;11520;51.198;4.468;2023-07-31T07:32:18;18.40;99.90
22706;DHT22;11520;51.198;4.468;2023-07-31T07:34:44;18.40;99.90
22706;DHT22;11520;51.198;4.468;2023-07-31T07:37:10;18.40;99.90
22706;DHT22;11520;51.198;4.468;2023-07-31T07:39:35;18.40;99.90
22706;DHT22;11520;51.198;4.468;2023-07-31T07:42:01;18.50;99.90
22706;DHT22;11520;51.198;4.468;2023-07-31T07:44:27;18.50;99.90
22706;DHT22;11520;51.198;4.468;2023-07-31T07:46:52;18.60;99.90
22706;DHT22;11520;51.198;4.468;2023-07-31T07:49:18;18.60;99.90
22706;DHT22;11520;51.198;4.468;2023-07-31T07:51:43;18.70;99.90
22706;DHT22;11520;51.198;4.468;2023-07-31T07:54:09;18.80;99.90
22706;DHT22;11520;51.198;4.468;2023-07-31T07:56:35;18.80;99.90
22706;DHT22;11520;51.198;4.468;2023-07-31T07:59:01;18.80;99.90
22706;DHT22;11520;51.198;4.468;2023-07-31T08:01:27;19.00;99.90
22706;DHT22;11520;51.198;4.468;2023-07-31T08:03:53;19.10;99.90
22706;DHT22;11520;51.198;4.468;2023-07-31T08:06:18;19.20;99.90
22706;DHT22;11520;51.198;4.468;2023-07-31T08:08:44;19.30;99.90
22706;DHT22;11520;51.198;4.468;2023-07-31T08:11:10;19.90;99.90
22706;DHT22;11520;51.198;4.468;2023-07-31T08:13:36;20.10;99.90
22706;DHT22;11520;51.198;4.468;2023-07-31T08:16:04;20.30;99.90
22706;DHT22;11520;51.198;4.468;2023-07-31T08:18:31;20.50;99.90
22706;DHT22;11520;51.198;4.468;2023-07-31T08:21:02;20.30;99.90
22706;DHT22;11520;51.198;4.468;2023-07-31T08:23:28;20.10;99.90
22706;DHT22;11520;51.198;4.468;2023-07-31T08:25:53;20.10;99.90
22706;DHT22;11520;51.198;4.468;2023-07-31T08:28:19;20.20;99.90
22706;DHT22;11520;51.198;4.468;2023-07-31T08:30:45;20.30;99.90
22706;DHT22;11520;51.198;4.468;2023-07-31T08:33:10;20.30;99.90
22706;DHT22;11520;51.198;4.468;2023-07-31T08:35:36;20.50;99.90
22706;DHT22;11520;51.198;4.468;2023-07-31T08:38:02;20.50;99.90
22706;DHT22;11520;51.198;4.468;2023-07-31T08:40:28;20.40;99.90
22706;DHT22;11520;51.198;4.468;2023-07-31T08:42:55;20.40;99.90
22706;DHT22;11520;51.198;4.468;2023-07-31T08:45:28;20.40;99.90
22706;DHT22;11520;51.198;4.468;2023-07-31T08:47:55;20.40;99.90
22706;DHT22;11520;51.198;4.468;2023-07-31T08:50:23;20.30;99.90
22706;DHT22;11520;51.198;4.468;2023-07-31T08:52:50;20.30;99.90
22706;DHT22;11520;51.198;4.468;2023-07-31T08:55:16;20.20;99.90
22706;DHT22;11520;51.198;4.468;2023-07-31T08:57:42;20.20;99.90
22706;DHT22;11520;51.198;4.468;2023-07-31T09:00:10;20.30;99.90
22706;DHT22;11520;51.198;4.468;2023-07-31T09:02:48;20.40;99.90
22706;DHT22;11520;51.198;4.468;2023-07-31T09:05:17;20.30;99.90
22706;DHT22;11520;51.198;4.468;2023-07-31T09:07:45;20.40;99.90
22706;DHT22;11520;51.198;4.468;2023-07-31T09:10:12;20.50;99.90
22706;DHT22;11520;51.198;4.468;2023-07-31T09:12:38;20.50;99.90
22706;DHT22;11520;51.198;4.468;2023-07-31T09:15:05;20.90;99.90
22706;DHT22;11520;51.198;4.468;2023-07-31T09:17:35;21.30;99.90
22706;DHT22;11520;51.198;4.468;2023-07-31T09:22:39;21.80;99.90
22706;DHT22;11520;51.198;4.468;2023-07-31T09:25:22;21.90;99.90
22706;DHT22;11520;51.198;4.468;2023-07-31T09:28:04;22.00;99.90
22706;DHT22;11520;51.198;4.468;2023-07-31T09:30:30;22.00;99.90
22706;DHT22;11520;51.198;4.468;2023-07-31T09:33:04;21.80;99.90
22706;DHT22;11520;51.198;4.468;2023-07-31T09:35:33;21.60;99.90
22706;DHT22;11520;51.198;4.468;2023-07-31T09:38:07;21.60;99.90
22706;DHT22;11520;51.198;4.468;2023-07-31T09:40:36;21.90;99.90
22706;DHT22;11520;51.198;4.468;2023-07-31T09:43:09;21.90;99.90
22706;DHT22;11520;51.198;4.468;2023-07-31T09:45:42;22.00;99.90
22706;DHT22;11520;51.198;4.468;2023-07-31T09:48:13;22.20;99.90
22706;DHT22;11520;51.198;4.468;2023-07-31T09:50:43;22.30;99.90
22706;DHT22;11520;51.198;4.468;2023-07-31T09:53:09;22.60;99.90
22706;DHT22;11520;51.198;4.468;2023-07-31T09:55:36;22.70;99.90
22706;DHT22;11520;51.198;4.468;2023-07-31T09:58:07;22.50;99.90
22706;DHT22;11520;51.198;4.468;2023-07-31T10:00:33;21.90;99.90
22706;DHT22;11520;51.198;4.468;2023-07-31T10:03:01;21.70;99.90
22706;DHT22;11520;51.198;4.468;2023-07-31T10:05:35;21.60;99.90
22706;DHT22;11520;51.198;4.468;2023-07-31T10:08:01;21.50;99.90
22706;DHT22;11520;51.198;4.468;2023-07-31T10:10:28;21.40;99.90
22706;DHT22;11520;51.198;4.468;2023-07-31T10:12:56;21.10;99.90
22706;DHT22;11520;51.198;4.468;2023-07-31T10:15:22;20.90;99.90
22706;DHT22;11520;51.198;4.468;2023-07-31T10:17:50;20.90;99.90
22706;DHT22;11520;51.198;4.468;2023-07-31T10:20:17;20.70;99.90
22706;DHT22;11520;51.198;4.468;2023-07-31T10:22:44;20.70;99.90
22706;DHT22;11520;51.198;4.468;2023-07-31T10:25:11;20.70;99.90
22706;DHT22;11520;51.198;4.468;2023-07-31T10:27:39;20.70;99.90
22706;DHT22;11520;51.198;4.468;2023-07-31T10:30:07;20.60;99.90
22706;DHT22;11520;51.198;4.468;2023-07-31T10:32:35;20.50;99.90
22706;DHT22;11520;51.198;4.468;2023-07-31T10:35:02;20.60;99.90
22706;DHT22;11520;51.198;4.468;2023-07-31T10:37:36;20.50;99.90
22706;DHT22;11520;51.198;4.468;2023-07-31T10:40:07;20.50;99.90
22706;DHT22;11520;51.198;4.468;2023-07-31T10:45:14;20.40;99.90
22706;DHT22;11520;51.198;4.468;2023-07-31T10:47:44;20.50;99.90
22706;DHT22;11520;51.198;4.468;2023-07-31T10:50:18;20.50;99.90
22706;DHT22;11520;51.198;4.468;2023-07-31T10:52:52;20.50;99.90
22706;DHT22;11520;51.198;4.468;2023-07-31T10:55:31;20.40;99.90
22706;DHT22;11520;51.198;4.468;2023-07-31T10:58:11;20.40;99.90
22706;DHT22;11520;51.198;4.468;2023-07-31T11:00:41;20.50;99.90
22706;DHT22;11520;51.198;4.468;2023-07-31T11:03:18;20.60;99.90
22706;DHT22;11520;51.198;4.468;2023-07-31T11:08:22;21.10;99.90
22706;DHT22;11520;51.198;4.468;2023-07-31T11:11:11;21.20;99.90
22706;DHT22;11520;51.198;4.468;2023-07-31T11:13:52;21.40;99.90
22706;DHT22;11520;51.198;4.468;2023-07-31T11:16:19;21.70;99.90
22706;DHT22;11520;51.198;4.468;2023-07-31T11:18:46;21.60;99.90
22706;DHT22;11520;51.198;4.468;2023-07-31T11:21:24;21.50;99.90
22706;DHT22;11520;51.198;4.468;2023-07-31T11:23:53;21.20;99.90
22706;DHT22;11520;51.198;4.468;2023-07-31T11:26:19;21.10;99.90
22706;DHT22;11520;51.198;4.468;2023-07-31T11:28:48;21.10;99.90
22706;DHT22;11520;51.198;4.468;2023-07-31T11:31:14;21.10;99.90
22706;DHT22;11520;51.198;4.468;2023-07-31T11:33:41;20.90;99.90
22706;DHT22;11520;51.198;4.468;2023-07-31T11:36:19;20.90;99.90
22706;DHT22;11520;51.198;4.468;2023-07-31T11:38:45;20.70;99.90
22706;DHT22;11520;51.198;4.468;2023-07-31T11:41:13;20.70;99.90
22706;DHT22;11520;51.198;4.468;2023-07-31T11:43:38;20.60;99.90
22706;DHT22;11520;51.198;4.468;2023-07-31T11:46:04;20.80;99.90
22706;DHT22;11520;51.198;4.468;2023-07-31T11:48:34;20.90;99.90
22706;DHT22;11520;51.198;4.468;2023-07-31T11:51:06;20.90;99.90
22706;DHT22;11520;51.198;4.468;2023-07-31T11:56:06;21.00;99.90
22706;DHT22;11520;51.198;4.468;2023-07-31T11:58:34;21.00;99.90
22706;DHT22;11520;51.198;4.468;2023-07-31T12:01:00;21.00;99.90
22706;DHT22;11520;51.198;4.468;2023-07-31T12:03:26;20.90;99.90
22706;DHT22;11520;51.198;4.468;2023-07-31T12:05:55;21.10;99.90
22706;DHT22;11520;51.198;4.468;2023-07-31T12:08:23;21.30;99.90
22706;DHT22;11520;51.198;4.468;2023-07-31T12:10:53;21.30;99.90
22706;DHT22;11520;51.198;4.468;2023-07-31T12:13:25;21.30;99.90
22706;DHT22;11520;51.198;4.468;2023-07-31T12:15:56;21.40;99.90
22706;DHT22;11520;51.198;4.468;2023-07-31T12:18:24;21.70;99.90
22706;DHT22;11520;51.198;4.468;2023-07-31T12:21:01;21.90;99.90
22706;DHT22;11520;51.198;4.468;2023-07-31T12:23:29;22.00;99.90
22706;DHT22;11520;51.198;4.468;2023-07-31T12:26:09;21.90;99.90
22706;DHT22;11520;51.198;4.468;2023-07-31T12:28:40;21.90;99.90
22706;DHT22;11520;51.198;4.468;2023-07-31T12:31:14;22.00;99.90
22706;DHT22;11520;51.198;4.468;2023-07-31T12:33:42;22.10;99.90
22706;DHT22;11520;51.198;4.468;2023-07-31T12:36:11;22.10;99.90
22706;DHT22;11520;51.198;4.468;2023-07-31T12:38:37;22.10;99.90
22706;DHT22;11520;51.198;4.468;2023-07-31T12:41:02;22.10;99.90
22706;DHT22;11520;51.198;4.468;2023-07-31T12:43:28;22.00;99.90
22706;DHT22;11520;51.198;4.468;2023-07-31T12:45:54;21.70;99.90
22706;DHT22;11520;51.198;4.468;2023-07-31T12:48:21;21.40;99.90
22706;DHT22;11520;51.198;4.468;2023-07-31T12:50:47;21.30;99.90
22706;DHT22;11520;51.198;4.468;2023-07-31T12:53:15;21.30;99.90
22706;DHT22;11520;51.198;4.468;2023-07-31T12:55:41;21.30;99.90
22706;DHT22;11520;51.198;4.468;2023-07-31T12:58:07;21.30;99.90
22706;DHT22;11520;51.198;4.468;2023-07-31T13:00:32;21.20;99.90
22706;DHT22;11520;51.198;4.468;2023-07-31T13:02:59;21.30;99.90
22706;DHT22;11520;51.198;4.468;2023-07-31T13:05:25;21.30;99.90
22706;DHT22;11520;51.198;4.468;2023-07-31T13:07:51;21.30;99.90
22706;DHT22;11520;51.198;4.468;2023-07-31T13:10:17;21.20;99.90
22706;DHT22;11520;51.198;4.468;2023-07-31T13:12:43;21.20;99.90
22706;DHT22;11520;51.198;4.468;2023-07-31T13:15:09;21.20;99.90
22706;DHT22;11520;51.198;4.468;2023-07-31T13:17:35;21.20;99.90
22706;DHT22;11520;51.198;4.468;2023-07-31T13:20:01;21.40;99.90
22706;DHT22;11520;51.198;4.468;2023-07-31T13:22:28;21.50;99.90
22706;DHT22;11520;51.198;4.468;2023-07-31T13:24:54;21.50;99.90
22706;DHT22;11520;51.198;4.468;2023-07-31T13:27:21;21.40;99.90
22706;DHT22;11520;51.198;4.468;2023-07-31T13:29:51;21.30;99.90
22706;DHT22;11520;51.198;4.468;2023-07-31T13:32:18;21.20;99.90
22706;DHT22;11520;51.198;4.468;2023-07-31T13:34:47;21.10;99.90
22706;DHT22;11520;51.198;4.468;2023-07-31T13:37:12;21.00;99.90
22706;DHT22;11520;51.198;4.468;2023-07-31T13:39:40;20.90;99.90
22706;DHT22;11520;51.198;4.468;2023-07-31T13:42:07;20.80;99.90
22706;DHT22;11520;51.198;4.468;2023-07-31T13:44:38;20.80;99.90
22706;DHT22;11520;51.198;4.468;2023-07-31T13:47:04;20.70;99.90
22706;DHT22;11520;51.198;4.468;2023-07-31T13:49:30;20.50;99.90
22706;DHT22;11520;51.198;4.468;2023-07-31T13:51:56;20.40;99.90
22706;DHT22;11520;51.198;4.468;2023-07-31T13:54:23;20.30;99.90
22706;DHT22;11520;51.198;4.468;2023-07-31T13:56:49;20.20;99.90
22706;DHT22;11520;51.198;4.468;2023-07-31T13:59:18;20.20;99.90
22706;DHT22;11520;51.198;4.468;2023-07-31T14:01:47;20.00;99.90
22706;DHT22;11520;51.198;4.468;2023-07-31T14:04:13;20.00;99.90
22706;DHT22;11520;51.198;4.468;2023-07-31T14:06:39;20.00;99.90
22706;DHT22;11520;51.198;4.468;2023-07-31T14:09:05;20.00;99.90
22706;DHT22;11520;51.198;4.468;2023-07-31T14:11:34;20.10;99.90
22706;DHT22;11520;51.198;4.468;2023-07-31T14:14:00;19.90;99.90
22706;DHT22;11520;51.198;4.468;2023-07-31T14:16:27;19.80;99.90
22706;DHT22;11520;51.198;4.468;2023-07-31T14:18:53;19.70;99.90
22706;DHT22;11520;51.198;4.468;2023-07-31T14:21:19;19.70;99.90
22706;DHT22;11520;51.198;4.468;2023-07-31T14:23:45;19.60;99.90
22706;DHT22;11520;51.198;4.468;2023-07-31T14:26:11;19.50;99.90
22706;DHT22;11520;51.198;4.468;2023-07-31T14:28:36;19.50;99.90
22706;DHT22;11520;51.198;4.468;2023-07-31T14:31:02;19.40;99.90
22706;DHT22;11520;51.198;4.468;2023-07-31T14:33:28;19.30;99.90
22706;DHT22;11520;51.198;4.468;2023-07-31T14:35:54;19.30;99.90
22706;DHT22;11520;51.198;4.468;2023-07-31T14:38:19;19.30;99.90
22706;DHT22;11520;51.198;4.468;2023-07-31T14:40:45;19.30;99.90
22706;DHT22;11520;51.198;4.468;2023-07-31T14:43:11;19.20;99.90
22706;DHT22;11520;51.198;4.468;2023-07-31T14:45:37;19.10;99.90
22706;DHT22;11520;51.198;4.468;2023-07-31T14:48:02;19.10;99.90
22706;DHT22;11520;51.198;4.468;2023-07-31T14:50:28;19.10;99.90
22706;DHT22;11520;51.198;4.468;2023-07-31T14:52:54;19.00;99.90
22706;DHT22;11520;51.198;4.468;2023-07-31T14:55:20;19.00;99.90
22706;DHT22;11520;51.198;4.468;2023-07-31T14:57:45;19.00;99.90
22706;DHT22;11520;51.198;4.468;2023-07-31T15:00:11;19.00;99.90
22706;DHT22;11520;51.198;4.468;2023-07-31T15:02:38;18.90;99.90
22706;DHT22;11520;51.198;4.468;2023-07-31T15:05:04;18.90;99.90
22706;DHT22;11520;51.198;4.468;2023-07-31T15:07:30;18.90;99.90
22706;DHT22;11520;51.198;4.468;2023-07-31T15:09:55;18.90;99.90
22706;DHT22;11520;51.198;4.468;2023-07-31T15:12:21;18.90;99.90
22706;DHT22;11520;51.198;4.468;2023-07-31T15:14:48;18.90;99.90
22706;DHT22;11520;51.198;4.468;2023-07-31T15:17:14;18.90;99.90
22706;DHT22;11520;51.198;4.468;2023-07-31T15:19:40;18.90;99.90
22706;DHT22;11520;51.198;4.468;2023-07-31T15:22:06;18.90;99.90
22706;DHT22;11520;51.198;4.468;2023-07-31T15:24:31;18.80;99.90
22706;DHT22;11520;51.198;4.468;2023-07-31T15:26:57;18.90;99.90
22706;DHT22;11520;51.198;4.468;2023-07-31T15:29:23;18.90;99.90
22706;DHT22;11520;51.198;4.468;2023-07-31T15:31:48;18.90;99.90
22706;DHT22;11520;51.198;4.468;2023-07-31T15:34:15;18.90;99.90
22706;DHT22;11520;51.198;4.468;2023-07-31T15:36:41;18.90;99.90
22706;DHT22;11520;51.198;4.468;2023-07-31T15:39:07;18.90;99.90
22706;DHT22;11520;51.198;4.468;2023-07-31T15:41:37;18.90;99.90
22706;DHT22;11520;51.198;4.468;2023-07-31T15:44:03;18.90;99.90
22706;DHT22;11520;51.198;4.468;2023-07-31T15:46:29;18.90;99.90